Time;durP1;ratioP1;P1;durP2;ratioP2;P2;SDS_P1;SDS_P2;PMS_P1;PMS_P2;Temp;Humidity;BMP_temperature;BMP_pressure;BME280_temperature;BME280_humidity;BME280_pressure;Samples;Min_cycle;Max_cycle;Signal;HPM_P1;HPM_P2
2022/09/29 00:00:55;;;;;;;35.00;16.27;;;6.70;99.90;;;;;;5012498;28;20309;-50
2022/09/29 00:03:24;;;;;;;8.80;6.93;;;6.70;99.90;;;;;;5011662;28;20294;-50
2022/09/29 00:05:54;;;;;;;8.67;7.77;;;6.60;99.90;;;;;;5012471;28;20201;-51
2022/09/29 00:08:26;;;;;;;10.73;6.97;;;6.60;99.90;;;;;;5012426;28;20291;-50
2022/09/29 00:10:54;;;;;;;8.77;7.50;;;6.60;99.90;;;;;;5012313;28;20318;-50
2022/09/29 00:13:23;;;;;;;8.23;7.33;;;6.60;99.90;;;;;;5009894;28;20286;-50
2022/09/29 00:16:00;;;;;;;8.23;7.43;;;6.60;99.90;;;;;;5012455;28;20294;-50
2022/09/29 00:18:29;;;;;;;6.93;6.20;;;6.60;99.90;;;;;;5012283;28;20667;-49
2022/09/29 00:20:59;;;;;;;7.43;6.63;;;6.60;99.90;;;;;;5010758;28;20667;-50
2022/09/29 00:23:29;;;;;;;7.57;6.77;;;6.60;99.90;;;;;;5011093;28;20230;-50
2022/09/29 00:26:05;;;;;;;8.43;6.53;;;6.70;99.90;;;;;;5011838;28;20299;-50
2022/09/29 00:28:35;;;;;;;8.03;6.33;;;6.70;99.90;;;;;;5012085;28;20639;-50
2022/09/29 00:31:05;;;;;;;7.93;7.17;;;6.80;99.90;;;;;;5012146;28;20247;-50
2022/09/29 00:33:35;;;;;;;12.13;8.07;;;6.80;99.90;;;;;;5010057;28;20207;-49
2022/09/29 00:36:05;;;;;;;11.27;6.67;;;6.80;99.90;;;;;;5011015;28;20297;-49
2022/09/29 00:38:35;;;;;;;15.83;8.57;;;6.90;99.90;;;;;;5011103;28;20299;-50
2022/09/29 00:41:04;;;;;;;12.73;7.77;;;6.90;99.90;;;;;;5009598;28;20332;-50
2022/09/29 00:43:54;;;;;;;36.80;9.43;;;6.90;99.90;;;;;;5009712;28;20324;-50
2022/09/29 00:46:29;;;;;;;53.17;11.17;;;7.00;99.90;;;;;;5010452;28;20314;-51
2022/09/29 00:49:02;;;;;;;44.33;10.43;;;7.00;99.90;;;;;;5010657;28;20297;-49
2022/09/29 00:51:32;;;;;;;86.83;11.50;;;7.00;99.90;;;;;;5011361;28;20676;-49
2022/09/29 00:54:02;;;;;;;57.93;13.07;;;7.10;99.90;;;;;;5010404;28;20666;-49
2022/09/29 00:56:31;;;;;;;74.97;11.00;;;7.10;99.90;;;;;;5011079;28;20215;-49
2022/09/29 00:59:02;;;;;;;97.27;11.57;;;7.10;99.90;;;;;;5011219;28;20305;-49
2022/09/29 01:01:32;;;;;;;65.67;10.27;;;7.10;99.90;;;;;;5011295;28;20231;-50
2022/09/29 01:04:05;;;;;;;159.67;14.43;;;7.10;99.90;;;;;;5010572;28;20257;-49
2022/09/29 01:06:38;;;;;;;35.00;10.57;;;7.10;99.90;;;;;;5011433;28;20314;-49
2022/09/29 01:09:11;;;;;;;58.47;9.90;;;7.00;99.90;;;;;;5010979;28;20307;-50
2022/09/29 01:11:39;;;;;;;72.63;10.67;;;7.00;99.90;;;;;;5011097;28;20319;-50
2022/09/29 01:14:09;;;;;;;45.47;11.20;;;7.00;99.90;;;;;;5013938;28;20279;-50
2022/09/29 01:16:40;;;;;;;19.00;9.23;;;7.00;99.90;;;;;;4997421;28;20208;-49
2022/09/29 01:19:16;;;;;;;21.20;7.60;;;7.00;99.90;;;;;;5011036;28;20217;-49
2022/09/29 01:21:56;;;;;;;16.00;7.63;;;7.10;99.90;;;;;;5009908;28;20278;-49
2022/09/29 01:24:57;;;;;;;7.87;6.40;;;7.00;99.90;;;;;;5011018;28;20733;-48
2022/09/29 01:27:55;;;;;;;10.83;6.27;;;7.00;99.90;;;;;;5010709;28;20207;-50
2022/09/29 01:30:40;;;;;;;7.87;7.07;;;7.10;99.90;;;;;;5009379;28;20221;-50
2022/09/29 01:33:23;;;;;;;9.33;6.83;;;7.00;99.90;;;;;;5008571;28;20294;-50
2022/09/29 01:35:59;;;;;;;7.77;6.90;;;7.00;99.90;;;;;;5010365;28;20296;-50
2022/09/29 01:38:41;;;;;;;7.00;6.30;;;6.90;99.90;;;;;;5010650;28;20244;-49
2022/09/29 01:41:16;;;;;;;8.07;6.57;;;6.90;99.90;;;;;;5010934;28;20244;-50
2022/09/29 01:43:49;;;;;;;8.37;6.63;;;6.90;99.90;;;;;;5009657;28;20769;-49
2022/09/29 01:46:23;;;;;;;6.97;5.97;;;6.90;99.90;;;;;;5011056;28;20299;-50
2022/09/29 01:48:55;;;;;;;7.80;7.00;;;6.90;99.90;;;;;;5010338;28;20629;-49
2022/09/29 01:51:27;;;;;;;9.00;7.13;;;7.00;99.90;;;;;;5010741;28;20312;-50
2022/09/29 01:54:01;;;;;;;11.00;9.60;;;7.00;99.90;;;;;;5009591;28;20654;-50
2022/09/29 01:56:34;;;;;;;8.70;6.77;;;7.10;99.90;;;;;;5010439;28;20213;-50
2022/09/29 01:59:08;;;;;;;6.47;5.87;;;7.10;99.90;;;;;;5010102;28;20213;-49
2022/09/29 02:01:42;;;;;;;7.33;6.50;;;7.20;99.90;;;;;;5010415;28;20234;-50
2022/09/29 02:04:16;;;;;;;11.47;9.27;;;7.20;99.90;;;;;;5010044;28;20260;-50
2022/09/29 02:06:50;;;;;;;8.50;7.47;;;7.20;99.90;;;;;;5010193;28;20209;-51
2022/09/29 02:09:22;;;;;;;8.67;7.73;;;7.20;99.90;;;;;;5009924;28;20314;-48
2022/09/29 02:11:52;;;;;;;15.93;9.93;;;7.20;99.90;;;;;;5009725;28;20332;-50
2022/09/29 02:14:23;;;;;;;10.60;8.27;;;7.20;99.90;;;;;;5009981;28;20292;-50
2022/09/29 02:16:58;;;;;;;7.77;7.00;;;7.20;99.90;;;;;;5010034;28;20285;-51
2022/09/29 02:19:30;;;;;;;7.63;6.20;;;7.20;99.90;;;;;;5010150;28;20292;-50
2022/09/29 02:21:59;;;;;;;9.33;6.57;;;7.20;99.90;;;;;;5009032;28;20258;-49
2022/09/29 02:24:27;;;;;;;9.13;6.93;;;7.20;99.90;;;;;;5009526;28;20261;-48
2022/09/29 02:26:56;;;;;;;10.63;7.40;;;7.20;99.90;;;;;;4996493;28;20766;-49
2022/09/29 02:29:24;;;;;;;13.77;8.37;;;7.30;99.90;;;;;;5009304;28;20213;-50
2022/09/29 02:31:56;;;;;;;23.37;16.07;;;7.30;99.90;;;;;;5009215;28;20341;-50
2022/09/29 02:34:25;;;;;;;12.90;7.70;;;7.30;99.90;;;;;;5008387;28;20256;-49
2022/09/29 02:36:58;;;;;;;23.43;8.63;;;7.30;99.90;;;;;;5010033;28;20290;-50
2022/09/29 02:39:37;;;;;;;36.13;10.00;;;7.30;99.90;;;;;;5009501;28;20248;-50
2022/09/29 02:42:17;;;;;;;41.37;11.93;;;7.20;99.90;;;;;;5009555;28;20224;-49
2022/09/29 02:45:00;;;;;;;27.60;9.63;;;7.20;99.90;;;;;;5007180;28;20226;-50
2022/09/29 02:47:45;;;;;;;51.40;11.77;;;7.30;99.90;;;;;;5007654;28;20282;-50
2022/09/29 02:50:39;;;;;;;26.03;11.00;;;7.30;99.90;;;;;;5019043;28;20213;-50
2022/09/29 02:53:21;;;;;;;45.57;12.47;;;7.40;99.90;;;;;;5008818;28;20220;-48
2022/09/29 02:55:57;;;;;;;32.80;11.50;;;7.40;99.90;;;;;;5008873;28;20292;-50
2022/09/29 02:58:31;;;;;;;61.43;13.17;;;7.40;99.90;;;;;;5009511;28;20721;-50
2022/09/29 03:01:00;;;;;;;69.20;15.63;;;7.40;99.90;;;;;;5009690;28;20231;-50
2022/09/29 03:03:30;;;;;;;46.10;11.10;;;7.50;99.90;;;;;;5009006;28;20221;-49
2022/09/29 03:05:58;;;;;;;17.23;8.53;;;7.50;99.90;;;;;;5009207;28;20555;-50
2022/09/29 03:08:26;;;;;;;16.40;11.07;;;7.50;99.90;;;;;;5009820;28;20208;-50
2022/09/29 03:10:54;;;;;;;21.83;10.60;;;7.50;99.90;;;;;;5008999;28;20324;-50
2022/09/29 03:13:22;;;;;;;19.40;8.60;;;7.40;99.90;;;;;;5009185;28;20210;-50
2022/09/29 03:15:50;;;;;;;33.30;10.50;;;7.40;99.90;;;;;;5009210;28;20291;-51
2022/09/29 03:18:18;;;;;;;16.17;8.07;;;7.30;99.90;;;;;;5009493;28;20310;-49
2022/09/29 03:20:47;;;;;;;20.27;8.50;;;7.30;99.90;;;;;;5009021;28;20320;-50
2022/09/29 03:23:16;;;;;;;16.07;10.57;;;7.30;99.90;;;;;;5008831;28;20305;-50
2022/09/29 03:25:44;;;;;;;12.50;8.33;;;7.30;99.90;;;;;;5009238;28;20301;-49
2022/09/29 03:28:12;;;;;;;10.33;8.20;;;7.40;99.90;;;;;;5008535;28;20674;-50
2022/09/29 03:30:40;;;;;;;12.90;8.40;;;7.40;99.90;;;;;;5009113;28;20314;-50
2022/09/29 03:33:08;;;;;;;10.90;7.70;;;7.30;99.90;;;;;;5008504;28;20214;-50
2022/09/29 03:35:36;;;;;;;9.70;7.80;;;7.40;99.90;;;;;;5009136;28;20835;-50
2022/09/29 03:38:10;;;;;;;12.53;8.40;;;7.40;99.90;;;;;;5008447;28;20266;-50
2022/09/29 03:40:39;;;;;;;11.07;7.50;;;7.40;99.90;;;;;;5008991;28;20312;-50
2022/09/29 03:43:07;;;;;;;16.73;14.93;;;7.50;99.90;;;;;;5007547;28;20673;-50
2022/09/29 03:45:35;;;;;;;10.40;7.37;;;7.50;99.90;;;;;;5008403;28;20250;-50
2022/09/29 03:48:03;;;;;;;13.90;10.53;;;7.60;99.90;;;;;;5009885;28;20207;-50
2022/09/29 03:50:31;;;;;;;10.83;9.67;;;7.60;99.90;;;;;;5009295;28;20300;-49
2022/09/29 03:52:59;;;;;;;6.67;5.97;;;7.70;99.90;;;;;;5008815;28;20273;-49
2022/09/29 03:55:28;;;;;;;10.47;7.30;;;7.60;99.90;;;;;;5011933;28;20207;-49
2022/09/29 03:57:56;;;;;;;15.67;14.17;;;7.60;99.90;;;;;;5012559;28;20212;-50
2022/09/29 04:00:24;;;;;;;9.37;8.17;;;7.60;99.90;;;;;;5010953;28;20218;-51
2022/09/29 04:02:54;;;;;;;7.80;6.00;;;7.70;99.90;;;;;;5012148;28;20236;-49
2022/09/29 04:05:22;;;;;;;8.47;5.73;;;7.80;99.90;;;;;;5012735;28;20218;-50
2022/09/29 04:07:50;;;;;;;10.03;6.37;;;7.80;99.90;;;;;;5012800;28;20250;-49
2022/09/29 04:10:18;;;;;;;7.83;5.73;;;7.80;99.90;;;;;;5011802;28;20229;-50
2022/09/29 04:12:48;;;;;;;9.83;6.53;;;7.80;99.90;;;;;;5012088;28;20246;-50
2022/09/29 04:15:16;;;;;;;7.43;5.93;;;7.80;99.90;;;;;;5012627;28;20277;-49
2022/09/29 04:17:44;;;;;;;12.93;11.73;;;7.80;99.90;;;;;;5012334;28;20237;-50
2022/09/29 04:20:12;;;;;;;10.73;9.63;;;7.80;99.90;;;;;;5011312;28;20663;-51
2022/09/29 04:22:40;;;;;;;41.23;21.33;;;7.80;99.90;;;;;;5011323;28;20317;-50
2022/09/29 04:25:09;;;;;;;6.63;5.33;;;7.80;99.90;;;;;;5012291;28;20313;-51
2022/09/29 04:27:37;;;;;;;10.17;8.80;;;7.70;99.90;;;;;;5024072;28;20296;-49
2022/09/29 04:30:08;;;;;;;7.10;5.90;;;7.60;99.90;;;;;;5011596;28;20292;-50
2022/09/29 04:32:36;;;;;;;6.70;6.00;;;7.60;99.90;;;;;;5009629;28;20234;-49
2022/09/29 04:35:05;;;;;;;7.20;6.13;;;7.50;99.90;;;;;;5011374;28;20289;-50
2022/09/29 04:37:33;;;;;;;13.40;10.53;;;7.50;99.90;;;;;;5011737;28;20222;-50
2022/09/29 04:40:02;;;;;;;6.40;5.43;;;7.40;99.90;;;;;;5012071;28;20225;-50
2022/09/29 04:42:30;;;;;;;6.70;5.87;;;7.50;99.90;;;;;;5010779;28;20849;-49
2022/09/29 04:44:58;;;;;;;8.27;6.60;;;7.40;99.90;;;;;;5011266;28;20664;-49
2022/09/29 04:47:28;;;;;;;6.63;5.50;;;7.50;99.90;;;;;;5011589;28;20590;-50
2022/09/29 04:49:56;;;;;;;23.03;21.03;;;7.40;99.90;;;;;;5011981;28;20209;-49
2022/09/29 04:52:24;;;;;;;7.63;5.90;;;7.40;99.90;;;;;;5010436;28;20662;-49
2022/09/29 04:54:52;;;;;;;10.60;6.13;;;7.30;99.90;;;;;;5010302;28;20302;-50
2022/09/29 04:57:20;;;;;;;10.30;7.17;;;7.30;99.90;;;;;;5010588;28;20224;-50
2022/09/29 04:59:50;;;;;;;10.93;7.27;;;7.30;99.90;;;;;;5011672;28;20296;-50
2022/09/29 05:02:18;;;;;;;10.97;8.20;;;7.20;99.90;;;;;;5010173;28;20321;-50
2022/09/29 05:04:48;;;;;;;9.50;7.73;;;7.30;99.90;;;;;;5009389;28;20251;-50
2022/09/29 05:07:16;;;;;;;17.37;10.13;;;7.30;99.90;;;;;;5010228;28;20297;-51
2022/09/29 05:09:44;;;;;;;11.50;8.33;;;7.30;99.90;;;;;;5010693;28;20228;-51
2022/09/29 05:12:12;;;;;;;12.30;7.87;;;7.40;99.90;;;;;;5010108;28;20626;-51
2022/09/29 05:14:40;;;;;;;16.83;11.57;;;7.40;99.90;;;;;;5011470;28;20206;-51
2022/09/29 05:17:08;;;;;;;15.07;11.67;;;7.50;99.90;;;;;;5011175;28;20216;-50
2022/09/29 05:19:36;;;;;;;17.27;9.23;;;7.50;99.90;;;;;;5011391;28;20299;-51
2022/09/29 05:22:07;;;;;;;18.07;14.57;;;7.50;99.90;;;;;;5010033;28;20224;-49
2022/09/29 05:24:35;;;;;;;16.37;11.07;;;7.60;99.90;;;;;;5010450;28;20237;-50
2022/09/29 05:27:03;;;;;;;29.00;15.57;;;7.60;99.90;;;;;;5010814;28;20240;-49
2022/09/29 05:29:31;;;;;;;18.73;13.43;;;7.60;99.90;;;;;;5011072;28;20754;-50
2022/09/29 05:31:59;;;;;;;20.43;14.40;;;7.70;99.90;;;;;;5010470;28;20230;-51
2022/09/29 05:34:27;;;;;;;17.03;9.90;;;7.60;99.90;;;;;;5009350;28;20226;-50
2022/09/29 05:36:55;;;;;;;12.63;8.80;;;7.60;99.90;;;;;;5010783;28;20755;-50
2022/09/29 05:39:25;;;;;;;46.30;16.57;;;7.60;99.90;;;;;;5007764;28;20390;-50
2022/09/29 05:41:53;;;;;;;138.20;14.20;;;7.60;99.90;;;;;;5000984;28;20289;-50
2022/09/29 05:44:26;;;;;;;70.63;11.87;;;7.60;99.90;;;;;;5000421;28;20208;-49
2022/09/29 05:46:54;;;;;;;49.67;16.80;;;7.70;99.90;;;;;;5008133;28;20762;-49
2022/09/29 05:49:22;;;;;;;121.90;18.03;;;7.70;99.90;;;;;;5009289;28;20324;-49
2022/09/29 05:51:50;;;;;;;133.90;13.23;;;7.70;99.90;;;;;;5009576;28;20947;-50
2022/09/29 05:54:18;;;;;;;151.60;15.50;;;7.70;99.90;;;;;;5010538;28;20297;-50
2022/09/29 05:56:48;;;;;;;114.70;16.60;;;7.60;99.90;;;;;;5010458;28;20286;-50
2022/09/29 05:59:16;;;;;;;39.57;16.03;;;7.70;99.90;;;;;;5009918;28;20209;-50
2022/09/29 06:01:44;;;;;;;14.13;9.63;;;7.60;99.90;;;;;;5008960;28;20225;-51
2022/09/29 06:04:12;;;;;;;15.90;9.07;;;7.60;99.90;;;;;;5009157;28;20215;-50
2022/09/29 06:06:40;;;;;;;44.97;34.63;;;7.60;99.90;;;;;;5009490;28;20321;-50
2022/09/29 06:09:08;;;;;;;16.27;13.47;;;7.70;99.90;;;;;;5010241;28;20213;-49
2022/09/29 06:11:36;;;;;;;13.40;10.00;;;7.60;99.90;;;;;;5010009;28;20254;-49
2022/09/29 06:14:06;;;;;;;26.43;23.53;;;7.60;99.90;;;;;;5009814;28;20245;-50
2022/09/29 06:16:35;;;;;;;22.50;15.53;;;7.60;99.90;;;;;;5010498;28;20294;-50
2022/09/29 06:19:04;;;;;;;15.53;9.27;;;7.60;99.90;;;;;;5009242;28;20243;-48
2022/09/29 06:21:36;;;;;;;97.23;13.70;;;7.60;99.90;;;;;;5009705;28;20761;-49
2022/09/29 06:24:06;;;;;;;57.77;12.00;;;7.70;99.90;;;;;;5009540;28;20217;-48
2022/09/29 06:26:34;;;;;;;50.57;17.57;;;7.70;99.90;;;;;;5008994;28;20304;-49
2022/09/29 06:29:03;;;;;;;76.57;11.63;;;7.80;99.90;;;;;;5010008;28;20308;-48
2022/09/29 06:31:32;;;;;;;31.60;10.97;;;7.80;99.90;;;;;;5009525;28;20240;-49
2022/09/29 06:34:03;;;;;;;27.07;19.40;;;7.90;99.90;;;;;;5008440;28;20216;-50
2022/09/29 06:39:22;;;;;;;15.23;9.93;;;8.00;99.90;;;;;;5000762;28;20357;-50
2022/09/29 06:41:53;;;;;;;22.07;12.17;;;7.90;99.90;;;;;;5008883;28;20767;-49
2022/09/29 06:44:23;;;;;;;19.73;17.20;;;7.90;99.90;;;;;;5009899;28;20242;-50
2022/09/29 06:46:52;;;;;;;15.03;11.30;;;7.90;99.90;;;;;;5009471;28;20254;-50
2022/09/29 06:49:21;;;;;;;22.47;19.77;;;8.00;99.90;;;;;;5009298;28;20214;-50
2022/09/29 06:51:49;;;;;;;15.20;11.83;;;8.00;99.90;;;;;;5009107;28;20231;-50
2022/09/29 06:54:19;;;;;;;15.10;10.63;;;8.00;99.90;;;;;;5010030;28;20302;-49
2022/09/29 06:56:48;;;;;;;42.50;37.57;;;8.10;99.90;;;;;;5007050;28;20281;-51
2022/09/29 06:59:16;;;;;;;12.33;10.20;;;8.10;99.90;;;;;;5009507;28;20302;-49
2022/09/29 07:01:49;;;;;;;26.87;23.60;;;8.10;99.90;;;;;;5008217;28;20226;-50
2022/09/29 07:04:21;;;;;;;15.00;13.43;;;8.10;99.90;;;;;;5009756;28;20225;-50
2022/09/29 07:06:50;;;;;;;34.80;31.37;;;8.20;99.90;;;;;;5008209;28;20301;-50
2022/09/29 07:09:18;;;;;;;9.83;8.20;;;8.30;99.90;;;;;;5009195;28;20297;-50
2022/09/29 07:11:49;;;;;;;14.80;12.50;;;8.40;99.90;;;;;;5009120;28;20276;-49
2022/09/29 07:14:21;;;;;;;47.17;28.33;;;8.50;99.90;;;;;;5008868;28;20246;-51
2022/09/29 07:16:50;;;;;;;48.50;43.17;;;8.60;99.90;;;;;;5009422;28;20261;-50
2022/09/29 07:19:20;;;;;;;35.87;28.53;;;8.60;99.90;;;;;;5009963;28;20313;-50
2022/09/29 07:21:49;;;;;;;17.97;11.47;;;8.60;99.90;;;;;;5008817;28;20642;-51
2022/09/29 07:24:17;;;;;;;52.43;46.77;;;8.60;99.90;;;;;;5009629;28;20302;-48
2022/09/29 07:26:45;;;;;;;16.43;11.10;;;8.60;99.90;;;;;;5009216;28;20725;-49
2022/09/29 07:29:13;;;;;;;27.90;13.13;;;8.60;99.90;;;;;;5010228;28;20298;-50
2022/09/29 07:31:44;;;;;;;13.67;10.00;;;8.50;99.90;;;;;;5013113;28;20623;-50
2022/09/29 07:34:20;;;;;;;11.63;8.23;;;8.60;99.90;;;;;;5012145;28;20212;-50
2022/09/29 07:36:48;;;;;;;45.80;36.47;;;8.70;99.90;;;;;;5012631;28;20203;-49
2022/09/29 07:39:16;;;;;;;117.03;106.17;;;9.00;99.90;;;;;;5013006;28;20864;-50
2022/09/29 07:41:44;;;;;;;33.63;22.13;;;9.20;99.90;;;;;;5012526;28;20322;-50
2022/09/29 07:44:12;;;;;;;18.73;15.37;;;9.30;99.90;;;;;;5012460;28;20302;-49
2022/09/29 07:46:40;;;;;;;36.33;23.30;;;9.30;99.90;;;;;;5013758;28;20223;-50
2022/09/29 07:49:09;;;;;;;51.80;20.63;;;9.40;99.90;;;;;;5012902;28;20214;-50
2022/09/29 07:51:38;;;;;;;41.10;17.33;;;9.40;99.90;;;;;;5016543;28;20227;-51
2022/09/29 07:54:06;;;;;;;44.87;32.77;;;9.40;99.90;;;;;;5012224;28;20250;-51
2022/09/29 07:56:35;;;;;;;54.60;38.60;;;9.50;99.90;;;;;;5012900;28;20222;-50
2022/09/29 07:59:03;;;;;;;84.90;59.90;;;9.60;99.90;;;;;;5011796;28;20211;-50
2022/09/29 08:01:32;;;;;;;118.47;28.23;;;9.70;99.90;;;;;;5012079;28;20223;-50
2022/09/29 08:04:01;;;;;;;47.27;31.87;;;9.80;99.90;;;;;;5011326;28;20199;-50
2022/09/29 08:06:30;;;;;;;76.53;50.70;;;9.70;99.90;;;;;;5012014;28;20226;-50
2022/09/29 08:09:00;;;;;;;51.33;24.47;;;9.60;99.90;;;;;;5012182;28;20207;-50
2022/09/29 08:11:32;;;;;;;98.77;71.63;;;9.70;99.90;;;;;;5012334;28;20356;-50
2022/09/29 08:14:01;;;;;;;22.10;12.27;;;9.80;99.90;;;;;;5010202;28;20199;-50
2022/09/29 08:16:30;;;;;;;62.27;18.87;;;9.80;99.90;;;;;;5012530;28;20251;-50
2022/09/29 08:18:59;;;;;;;133.27;63.50;;;10.00;99.90;;;;;;5012805;28;20211;-50
2022/09/29 08:21:28;;;;;;;211.00;188.70;;;10.10;99.90;;;;;;5012273;28;20232;-50
2022/09/29 08:23:56;;;;;;;66.90;38.20;;;10.30;99.90;;;;;;5011446;28;20310;-51
2022/09/29 08:26:26;;;;;;;20.07;12.73;;;10.40;99.90;;;;;;5011949;28;20321;-50
2022/09/29 08:29:08;;;;;;;43.97;38.33;;;10.60;99.90;;;;;;5012229;28;20211;-49
2022/09/29 08:31:37;;;;;;;88.63;74.80;;;10.60;99.90;;;;;;5012387;28;20259;-50
2022/09/29 08:34:06;;;;;;;39.13;31.63;;;10.70;99.90;;;;;;5010258;28;20207;-49
2022/09/29 08:36:35;;;;;;;50.90;34.00;;;10.90;99.90;;;;;;5011875;28;20295;-51
2022/09/29 08:39:03;;;;;;;111.50;75.73;;;10.90;99.90;;;;;;5011537;28;20215;-49
2022/09/29 08:41:44;;;;;;;88.17;49.37;;;10.80;99.90;;;;;;5010905;28;20233;-50
2022/09/29 08:44:17;;;;;;;104.47;91.23;;;10.90;99.90;;;;;;5011209;28;20763;-49
2022/09/29 08:47:13;;;;;;;91.80;81.10;;;10.80;99.90;;;;;;5012104;28;20318;-50
2022/09/29 08:49:45;;;;;;;65.50;37.17;;;10.80;99.90;;;;;;5011934;28;20222;-50
2022/09/29 08:52:17;;;;;;;185.87;123.77;;;10.80;99.90;;;;;;5010998;28;20237;-50
2022/09/29 08:54:47;;;;;;;64.83;42.67;;;10.70;99.90;;;;;;5010892;28;20313;-50
2022/09/29 08:57:19;;;;;;;85.07;73.87;;;10.60;99.90;;;;;;5011955;28;20249;-49
2022/09/29 08:59:53;;;;;;;81.83;74.07;;;10.70;99.90;;;;;;5011626;28;20234;-51
2022/09/29 09:02:43;;;;;;;40.87;24.87;;;10.70;99.90;;;;;;5008084;28;20337;-50
2022/09/29 09:05:42;;;;;;;83.07;71.70;;;10.70;99.90;;;;;;5011148;28;20222;-50
2022/09/29 09:08:20;;;;;;;62.83;49.00;;;10.60;99.90;;;;;;5011376;28;20238;-50
2022/09/29 09:10:57;;;;;;;78.13;67.13;;;10.80;99.90;;;;;;5011527;28;20393;-49
2022/09/29 09:13:41;;;;;;;21.47;18.20;;;10.90;99.90;;;;;;5010635;28;20252;-50
2022/09/29 09:16:21;;;;;;;59.10;49.67;;;11.20;99.90;;;;;;5011344;28;20210;-50
2022/09/29 09:19:03;;;;;;;105.97;79.50;;;11.30;99.90;;;;;;5010808;28;20241;-50
2022/09/29 09:21:40;;;;;;;18.43;15.67;;;11.30;99.90;;;;;;5011043;28;20598;-51
2022/09/29 09:24:16;;;;;;;93.57;83.77;;;11.50;99.90;;;;;;4997677;28;20305;-50
2022/09/29 09:26:48;;;;;;;43.27;34.87;;;11.60;99.90;;;;;;5013673;28;20222;-50
2022/09/29 09:29:25;;;;;;;66.10;55.87;;;11.60;99.90;;;;;;5010757;28;20298;-51
2022/09/29 09:31:59;;;;;;;74.77;63.87;;;11.70;99.90;;;;;;5010333;28;20230;-50
2022/09/29 09:34:34;;;;;;;100.23;87.57;;;11.70;99.90;;;;;;5009143;28;20234;-50
2022/09/29 09:37:16;;;;;;;58.20;47.00;;;11.80;99.90;;;;;;5010509;28;20207;-49
2022/09/29 09:39:48;;;;;;;164.00;146.33;;;11.90;99.90;;;;;;5010346;28;20238;-50
2022/09/29 09:42:21;;;;;;;43.97;34.10;;;11.90;99.90;;;;;;5009749;28;20258;-51
2022/09/29 09:44:54;;;;;;;27.17;20.37;;;11.90;99.90;;;;;;5010099;28;20684;-50
2022/09/29 09:47:26;;;;;;;31.20;27.30;;;11.90;99.90;;;;;;5010194;28;20751;-50
2022/09/29 09:49:59;;;;;;;78.37;69.30;;;11.90;99.90;;;;;;5010511;28;20258;-51
2022/09/29 09:52:33;;;;;;;143.10;118.33;;;12.00;99.90;;;;;;5009627;28;20309;-50
2022/09/29 09:55:04;;;;;;;35.00;26.27;;;11.90;99.90;;;;;;5010627;28;20294;-50
2022/09/29 09:57:50;;;;;;;64.87;53.30;;;11.80;99.90;;;;;;5010010;28;20213;-50
2022/09/29 10:00:25;;;;;;;44.00;32.63;;;11.90;99.90;;;;;;5009002;28;20211;-50
2022/09/29 10:02:55;;;;;;;58.73;52.77;;;11.70;99.90;;;;;;5009234;28;20214;-50
2022/09/29 10:05:29;;;;;;;56.20;50.10;;;11.80;99.90;;;;;;5006901;28;20298;-50
2022/09/29 10:07:57;;;;;;;51.50;44.30;;;12.00;99.90;;;;;;5008065;28;20237;-49
2022/09/29 10:10:28;;;;;;;43.97;37.43;;;12.30;99.90;;;;;;4996632;28;20258;-49
2022/09/29 10:13:01;;;;;;;74.10;59.30;;;12.40;99.90;;;;;;5009400;28;20207;-49
2022/09/29 10:15:37;;;;;;;100.83;82.20;;;12.60;99.90;;;;;;4996951;28;20297;-50
2022/09/29 10:18:12;;;;;;;152.20;114.27;;;12.50;99.90;;;;;;5003351;28;20699;-50
2022/09/29 10:20:41;;;;;;;76.50;68.27;;;12.40;99.90;;;;;;5009574;28;20313;-50
2022/09/29 10:23:24;;;;;;;52.30;42.77;;;12.40;99.90;;;;;;5008559;28;20246;-50
2022/09/29 10:25:57;;;;;;;70.93;57.57;;;12.30;99.90;;;;;;5008941;28;20675;-49
2022/09/29 10:28:28;;;;;;;173.27;157.10;;;12.10;99.90;;;;;;5009332;28;20254;-51
2022/09/29 10:30:58;;;;;;;64.40;56.70;;;12.20;99.90;;;;;;5008759;28;20318;-50
2022/09/29 10:33:26;;;;;;;81.17;72.67;;;12.30;99.90;;;;;;5008939;28;20306;-50
2022/09/29 10:36:07;;;;;;;75.43;56.80;;;12.30;99.90;;;;;;5009631;28;20221;-50
2022/09/29 10:38:37;;;;;;;127.53;97.17;;;12.20;99.90;;;;;;5009373;28;20195;-50
2022/09/29 10:41:08;;;;;;;71.80;55.80;;;12.20;99.90;;;;;;5009115;28;20587;-49
2022/09/29 10:43:38;;;;;;;48.97;43.67;;;12.30;99.90;;;;;;5009251;28;20293;-50
2022/09/29 10:46:38;;;;;;;104.83;82.83;;;12.30;99.90;;;;;;5009009;28;20219;-50
2022/09/29 10:49:13;;;;;;;73.20;45.20;;;12.30;99.90;;;;;;5008994;28;20225;-51
2022/09/29 10:51:48;;;;;;;88.57;78.10;;;12.20;99.90;;;;;;5008705;28;20313;-51
2022/09/29 10:54:17;;;;;;;48.20;41.37;;;12.30;99.90;;;;;;5009932;28;20302;-50
2022/09/29 10:56:48;;;;;;;37.00;25.33;;;12.40;99.90;;;;;;5009032;28;20310;-50
2022/09/29 10:59:18;;;;;;;47.73;42.63;;;12.40;99.90;;;;;;5009113;28;20221;-51
2022/09/29 11:01:50;;;;;;;70.60;47.37;;;12.40;99.90;;;;;;5008832;28;20284;-50
2022/09/29 11:04:22;;;;;;;110.43;100.60;;;12.30;99.90;;;;;;5014833;28;20210;-50
2022/09/29 11:06:51;;;;;;;39.03;26.27;;;12.30;99.90;;;;;;5013206;28;20217;-49
2022/09/29 11:09:35;;;;;;;121.10;109.03;;;12.40;99.90;;;;;;5023023;28;20226;-50
2022/09/29 11:12:03;;;;;;;114.33;101.83;;;12.40;99.90;;;;;;5004446;28;20612;-50
2022/09/29 11:14:42;;;;;;;58.00;52.60;;;12.40;99.90;;;;;;5013060;28;20206;-50
2022/09/29 11:17:24;;;;;;;100.10;76.63;;;12.50;99.90;;;;;;5014624;28;20752;-51
2022/09/29 11:19:54;;;;;;;46.43;41.30;;;12.50;99.90;;;;;;5013493;28;20290;-51
2022/09/29 11:23:07;;;;;;;64.80;57.17;;;12.60;99.90;;;;;;5012268;28;20784;-50
2022/09/29 11:26:00;;;;;;;48.97;37.97;;;12.80;99.90;;;;;;5009234;28;20244;-50
2022/09/29 11:29:20;;;;;;;129.83;104.87;;;13.00;99.90;;;;;;5006124;28;20321;-51
2022/09/29 11:32:11;;;;;;;121.77;97.77;;;13.00;99.90;;;;;;5013158;28;20223;-49
2022/09/29 11:35:05;;;;;;;102.37;85.97;;;13.00;99.90;;;;;;5013135;28;20657;-50
2022/09/29 11:37:54;;;;;;;78.50;69.27;;;13.10;99.90;;;;;;5012218;28;20211;-53
2022/09/29 11:40:31;;;;;;;103.40;93.00;;;13.10;99.90;;;;;;5001255;28;20747;-51
2022/09/29 11:43:20;;;;;;;45.37;40.27;;;13.30;99.90;;;;;;5012312;28;20215;-50
2022/09/29 11:45:56;;;;;;;34.43;30.30;;;13.30;99.90;;;;;;5013011;28;20298;-50
2022/09/29 11:48:59;;;;;;;82.57;69.47;;;13.10;99.90;;;;;;5012606;28;20224;-51
2022/09/29 11:51:41;;;;;;;56.63;51.93;;;13.30;99.90;;;;;;5012789;28;20233;-49
2022/09/29 11:54:30;;;;;;;38.47;33.17;;;13.30;99.90;;;;;;5008834;28;20238;-49
2022/09/29 11:57:04;;;;;;;75.17;67.47;;;13.40;99.90;;;;;;5011663;28;20323;-51
2022/09/29 12:00:06;;;;;;;168.67;119.43;;;13.40;99.90;;;;;;5011337;28;20858;-50
2022/09/29 12:03:04;;;;;;;41.60;34.67;;;13.50;99.90;;;;;;5004129;28;20312;-50
2022/09/29 12:05:43;;;;;;;164.67;121.80;;;13.50;99.90;;;;;;5012322;28;20924;-50
2022/09/29 12:08:21;;;;;;;62.53;51.33;;;13.60;99.90;;;;;;5012221;28;20309;-51
2022/09/29 12:10:58;;;;;;;164.37;137.77;;;13.70;99.90;;;;;;5012428;28;20258;-51
2022/09/29 12:13:36;;;;;;;162.37;146.30;;;13.70;99.90;;;;;;5011695;28;20214;-51
2022/09/29 12:16:09;;;;;;;66.17;59.10;;;13.70;99.90;;;;;;5011250;28;20293;-51
2022/09/29 12:18:42;;;;;;;65.90;59.23;;;13.70;99.90;;;;;;5009866;28;20215;-50
2022/09/29 12:21:12;;;;;;;70.33;63.80;;;13.70;99.90;;;;;;5010665;28;20605;-51
2022/09/29 12:23:47;;;;;;;93.70;79.43;;;13.80;99.90;;;;;;5011091;28;20702;-50
2022/09/29 12:26:19;;;;;;;45.27;34.23;;;13.80;99.90;;;;;;5011022;28;20294;-50
2022/09/29 12:28:54;;;;;;;146.57;134.77;;;13.80;99.90;;;;;;5011846;28;20218;-51
2022/09/29 12:31:27;;;;;;;101.80;86.40;;;13.90;99.90;;;;;;5011642;28;20230;-51
2022/09/29 12:34:00;;;;;;;90.90;81.97;;;13.90;99.90;;;;;;5010933;28;20211;-50
2022/09/29 12:37:01;;;;;;;182.77;164.33;;;14.00;99.90;;;;;;5011499;28;20215;-50
2022/09/29 12:39:41;;;;;;;107.47;95.80;;;14.00;99.90;;;;;;5004514;28;20249;-50
2022/09/29 12:42:29;;;;;;;181.33;162.20;;;14.00;99.90;;;;;;5013862;28;20230;-50
2022/09/29 12:45:04;;;;;;;128.97;117.57;;;14.00;99.90;;;;;;5011374;28;20608;-49
2022/09/29 12:47:54;;;;;;;91.37;79.83;;;13.90;99.90;;;;;;5011315;28;20214;-50
2022/09/29 12:50:28;;;;;;;77.33;69.33;;;14.00;99.90;;;;;;5011060;28;20302;-49
2022/09/29 12:53:03;;;;;;;116.03;104.77;;;13.90;99.90;;;;;;5009897;28;20286;-49
2022/09/29 12:55:45;;;;;;;55.77;50.77;;;14.00;99.90;;;;;;5011531;28;20210;-50
2022/09/29 12:58:21;;;;;;;71.07;63.00;;;14.10;99.90;;;;;;5010652;28;20214;-51
2022/09/29 13:00:56;;;;;;;142.47;123.47;;;14.10;99.90;;;;;;5010902;28;20312;-51
2022/09/29 13:04:00;;;;;;;76.93;68.67;;;14.10;99.90;;;;;;5010621;28;20202;-51
2022/09/29 13:06:54;;;;;;;98.13;78.60;;;14.20;99.90;;;;;;5008165;28;20282;-50
2022/09/29 13:09:59;;;;;;;100.13;90.93;;;14.20;99.90;;;;;;5011716;28;20337;-50